Etusivu
METAR-TAF:

METAR-TAF

Lentoasemat :

Greenville, Mississippi, Yhdysvallat

Leveyspiiri: 33-28-58N, Pituuspiiri: 090-59-08W, korkeus merenpinnasta: 40 m

Tämänhetkinen sää

Tämä raportti tehtiin 12 minuuttia sitten, kello 12.53 UTC
Tuuli 8 kn etelästä
Lämpötila 26°C
Kosteus 79%
Ilmanpaine 1018 hPa
Näkyvyys: 12.9 km
selkeää

METAR: KGLH 271253Z 19008KT 8SM CLR 26/22 A3005 RMK AO2 SLP180 T02560222

Aika: 08:05 (13:05 UTC)

Sääennuste

Tämä raportti tehtiin 1 tunti ja 24 minuuttia sitten, kello 11.41 UTC
Ennuste voimassa 27. päivästä klo 12 UTC - 28. päivään klo 12 UTC
Tuuli 5 kn etelästä
Näkyvyys: 10 km
selkeää
From 27. päivästä klo 1900 UTC
Tuuli 12 kn etelästä puuskistuen 20 kn:hen
Näkyvyys: 10 km
Muutamia pilviä 25000 ft:n korkeudessa
From 28. päivästä klo 0200 UTC
Tuuli 7 kn etelästä
Näkyvyys: 10 km
selkeää

TAF: KGLH 271141Z 2712/2812 18005KT P6SM SKC FM271900 18012G20KT P6SM FEW250 FM280200 18007KT P6SM SKC

Säähavainnot ja -ennusteet yli 4000 lentoasemalta (METAR- ja TAF-raportit).

Käytössä olevat sääasemat on merkitty karttaan keltaisilla ja punaisilla pisteillä.

Aseta hiiri pisteen päälle nähdäksesi sääaseman nimen.

Klikkaa sitten nähdäksesi säähavainnot ja -ennusteet.

Kartan vaihtaminen: klikkaa mustalla rastilla varustettuja vihreitä pisteitä, niin voit zoomata sisään; viivalla varustettua vihreää pistettä, niin voit zoomata ulos tai vihreitä nuolia, niin pääset viereisille kartoille.


METAR-TAF: